Latest Coastal Weather Observations for Moruya Airport

IDN60701

Issued at 4:41 pm EST Monday 31 August 2015 (issued every 10 minutes, with the page automatically refreshed every 10 minutes)

About coastal observations | Map of coastal stations | Coastal observations for NSW | Marine services | Other Formats
Station Details ID: 069148 Name: MORUYA AIRPORT AWS Lat: -35.90 Lon: 150.14 Height: 4.0 m
Data from the previous 72 hours. | See also: Recent months at Moruya Airport
Date/Time
EST
Temp

°C
Wind Pressure Rain
since 9am
mm
Weather Cloud Vis
km
Sea
Height
m
Swell
Dir
 
Speed
knots
Gust
knots
hPa Trend Height
m
Period
s
Dir
31/04:30pm 15.1 SSE 10 14 1014.1 - 0.0 - - 10 - - - -
31/04:00pm 15.2 SSE 10 13 1014.0 - 0.0 - - 10 - - - -
31/03:30pm 16.4 SSE 11 15 1014.0 - 0.0 - - 10 - - - -
31/03:00pm 15.8 SE 10 13 1014.1 - 0.0 - - 10 - - - -
31/02:30pm 16.8 SE 10 13 1014.2 - 0.0 - - 10 - - - -
31/02:00pm 17.0 ESE 9 13 1014.3 - 0.0 - - 10 - - - -
31/01:30pm 17.1 ESE 9 12 1014.5 - 0.0 - - 10 - - - -
31/01:00pm 17.8 SSW 7 13 1014.8 - 0.0 - - 10 - - - -
31/12:30pm 17.5 SSW 7 11 1015.2 - 0.0 - - 10 - - - -
31/12:00pm 17.0 S 8 13 1015.6 - 0.0 - - 10 - - - -
31/11:30am 16.6 S 9 12 1016.0 - 0.0 - - 10 - - - -
31/11:00am 16.7 SW 9 14 1016.5 - 0.0 - Partly cloudy 10 - - - -
31/10:30am 15.6 WSW 6 8 1016.7 - 0.0 - - 10 - - - -
31/10:00am 15.0 W 6 7 1017.0 - 0.0 - - 10 - - - -
31/09:30am 13.2 WNW 6 9 1017.4 - 0.0 - - 10 - - - -
31/09:00am 11.7 W 5 8 1017.5 - 0.0 - Mostly clear 10 - - - -
31/08:30am 10.6 WSW 5 7 1017.4 - 0.0 - - 10 - - - -
31/08:00am 8.1 WSW 4 6 1017.6 - 0.0 - - 10 - - - -
31/07:30am 6.5 WSW 4 6 1017.6 - 0.0 - - 10 - - - -
31/07:00am 4.6 WSW 4 5 1017.5 - 0.0 - - 10 - - - -
31/06:30am 3.4 W 4 6 1017.3 - 0.0 - - 10 - - - -
31/06:00am 3.1 SW 4 5 1017.2 - 0.0 - - 10 - - - -
31/05:30am 2.9 WSW 4 6 1017.2 - 0.0 - - 10 - - - -
31/05:00am 3.5 WSW 3 5 1017.1 - 0.0 - - 10 - - - -
31/04:30am 3.9 W 3 4 1017.1 - 0.0 - - 10 - - - -
31/04:00am 4.2 WSW 4 5 1017.1 - 0.0 - - 10 - - - -
31/03:30am 3.9 WSW 4 5 1017.2 - 0.0 - - 10 - - - -
31/03:00am 4.3 W 3 4 1017.5 - 0.0 - - 10 - - - -
31/02:30am 5.0 WSW 5 6 1017.9 - 0.0 - - 10 - - - -
31/02:00am 4.8 WSW 5 6 1018.4 - 0.0 - - 10 - - - -
31/01:30am 4.8 WSW 6 8 1018.6 - 0.0 - - 10 - - - -
31/01:00am 3.9 W 4 5 1019.0 - 0.0 - - 10 - - - -
31/12:30am 4.7 W 3 5 1019.2 - 0.0 - - 10 - - - -
31/12:00am 4.9 WNW 2 3 1019.0 - 0.0 - - 10 - - - -
 
Date/Time
EST
Temp

°C
Wind Pressure Rain
since 9am
mm
Weather Cloud Vis
km
Sea
Height
m
Swell
Dir
 
Speed
knots
Gust
knots
hPa Trend Height
m
Period
s
Dir
30/11:30pm 5.0 W 3 4 1019.1 - 0.0 - - 10 - - - -
30/11:00pm 6.2 SW 5 6 1019.1 - 0.0 - - 10 - - - -
30/10:30pm 6.8 SW 6 9 1019.4 - 0.0 - - 10 - - - -
30/10:00pm 6.6 SW 6 8 1019.8 - 0.0 - - 10 - - - -
30/09:30pm 7.3 SW 5 6 1019.9 - 0.0 - - 10 - - - -
30/09:00pm 8.3 WSW 4 5 1019.9 - 0.0 - - 10 - - - -
30/08:30pm 9.2 SW 5 8 1019.8 - 0.0 - - 10 - - - -
30/08:00pm 9.6 SW 6 7 1019.5 - 0.0 - - 10 - - - -
30/07:30pm 10.0 SW 7 9 1019.1 - 0.0 - - 10 - - - -
30/07:00pm 9.7 SW 5 6 1019.1 - 0.0 - - 10 - - - -
30/06:30pm 10.2 WSW 4 5 1018.9 - 0.0 - - 10 - - - -
30/06:00pm 11.2 SW 5 6 1018.7 - 0.0 - - 10 - - - -
30/05:30pm 12.7 SW 5 7 1018.5 - 0.0 - - 10 - - - -
30/05:00pm 14.1 SSW 8 11 1018.4 - 0.0 - Partly cloudy 10 - - - -
30/04:30pm 14.8 SSW 7 9 1018.2 - 0.0 - Partly cloudy 10 - - - -
30/04:00pm 15.1 SSW 9 12 1018.1 - 0.0 - Partly cloudy 10 - - - -
30/03:30pm 15.6 SW 9 15 1018.1 - 0.0 - Partly cloudy 10 - - - -
30/03:00pm 15.7 SW 5 7 1018.1 - 0.0 - Partly cloudy 10 - - - -
30/02:30pm 15.8 SSW 8 11 1018.2 - 0.0 - Partly cloudy 10 - - - -
30/02:00pm 16.2 SW 9 11 1018.3 - 0.0 - Partly cloudy 10 - - - -
30/01:30pm 16.1 SW 10 13 1018.4 - 0.0 - Partly cloudy 10 - - - -
30/01:00pm 16.1 SW 9 12 1018.6 - 0.0 - Partly cloudy 10 - - - -
30/12:30pm 15.5 SSW 9 13 1018.8 - 0.0 - Partly cloudy 10 - - - -
30/12:00pm 17.0 SSW 7 10 1019.0 - 0.0 - Mostly clear 10 - - - -
30/11:30am 16.4 SW 9 13 1019.6 - 0.0 - Partly cloudy 10 - - - -
30/11:00am 16.0 S 7 10 1019.8 - 0.0 - Partly cloudy 10 - - - -
30/10:30am 15.7 S 7 12 1020.1 - 0.0 - - 10 - - - -
30/10:00am 15.1 SSW 7 9 1020.1 - 0.0 - Partly cloudy 10 - - - -
30/09:30am 13.9 SW 5 7 1020.3 - 0.0 - Partly cloudy 10 - - - -
30/09:00am 12.3 W 4 5 1020.3 - 0.0 - Partly cloudy 10 - - - -
30/08:30am 9.9 SW 4 5 1020.2 - 0.0 - - 10 - - - -
30/08:00am 9.0 SW 5 6 1020.0 - 0.0 - Partly cloudy 10 - - - -
30/07:30am 7.9 WSW 1 5 1019.8 - 0.0 - Partly cloudy 10 - - - -
30/07:00am 6.8 WSW 2 4 1019.6 - 0.0 - Cloudy 10 - - - -
30/06:30am 6.2 SW 1 4 1019.4 - 0.0 - Cloudy 10 - - - -
30/06:00am 6.0 CALM 0 0 1019.3 - 0.0 - Mostly cloudy 10 - - - -
30/05:30am 5.9 SW 3 4 1019.3 - 0.0 - Cloudy 10 - - - -
30/05:00am 6.0 WNW 2 4 1019.2 - 0.0 - Partly cloudy 10 - - - -
30/04:30am 5.9 W 2 5 1019.3 - 0.0 - Partly cloudy 10 - - - -
30/04:00am 5.5 CALM 0 0 1019.3 - 0.0 - Cloudy 10 - - - -
30/03:30am 4.7 CALM 0 0 1019.3 - 0.0 - Partly cloudy 10 - - - -
30/03:00am 4.9 CALM 0 1 1019.5 - 0.0 - - 10 - - - -
30/02:30am 5.0 W 3 5 1019.6 - 0.0 - - 10 - - - -
30/02:00am 5.9 W 4 6 1019.9 - 0.0 - - 10 - - - -
30/01:30am 7.3 W 5 7 1020.3 - 0.0 - - 10 - - - -
30/01:00am 7.0 WSW 6 8 1020.7 - 0.0 - - 10 - - - -
30/12:30am 5.1 W 5 6 1020.9 - 0.0 - - 10 - - - -
30/12:00am 5.3 WNW 5 7 1020.8 - 0.0 - - 10 - - - -
 
Date/Time
EST
Temp

°C
Wind Pressure Rain
since 9am
mm
Weather Cloud Vis
km
Sea
Height
m
Swell
Dir
 
Speed
knots
Gust
knots
hPa Trend Height
m
Period
s
Dir
29/11:30pm 6.2 WSW 5 5 1020.7 - 0.0 - - 10 - - - -
29/11:00pm 5.9 WSW 4 5 1020.6 - 0.0 - - 10 - - - -
29/10:30pm 6.4 WSW 3 5 1020.5 - 0.0 - - 10 - - - -
29/10:00pm 5.6 WSW 5 7 1020.1 - 0.0 - - 10 - - - -
29/09:30pm 6.1 WSW 3 4 1020.1 - 0.0 - - 10 - - - -
29/09:00pm 6.6 W 4 5 1020.0 - 0.0 - - 10 - - - -
29/08:30pm 6.0 W 4 6 1019.8 - 0.0 - - 10 - - - -
29/08:00pm 7.2 W 2 5 1019.7 - 0.0 - - 10 - - - -
29/07:30pm 7.4 NW 2 4 1019.6 - 0.0 - - 10 - - - -
29/07:00pm 8.0 W 4 6 1019.5 - 0.0 - - 10 - - - -
29/06:30pm 8.4 WSW 4 6 1019.3 - 0.0 - - 10 - - - -
29/06:00pm 9.6 W 2 4 1019.1 - 0.0 - - 10 - - - -
29/05:30pm 11.4 WSW 3 4 1018.6 - 0.0 - - 10 - - - -
29/05:00pm 14.2 SE 4 6 1018.3 - 0.0 - - 10 - - - -
29/04:30pm 14.8 SE 6 9 1018.2 - 0.0 - - 10 - - - -
29/04:00pm 15.0 ESE 7 9 1017.9 - 0.0 - - 10 - - - -
29/03:30pm 15.5 E 7 9 1017.7 - 0.0 - - 10 - - - -
29/03:00pm 15.7 ENE 7 8 1017.7 - 0.0 - - 10 - - - -
29/02:30pm 15.3 NE 7 9 1017.7 - 0.0 - Partly cloudy 10 - - - -
29/02:00pm 15.3 NE 7 9 1017.7 - 0.0 - - 10 - - - -
29/01:30pm 14.6 ENE 8 10 1018.1 - 0.0 - - 10 - - - -
29/01:00pm 14.6 E 7 8 1018.5 - 0.0 - - 10 - - - -
29/12:30pm 13.7 ESE 7 10 1019.0 - 0.0 - Partly cloudy 10 - - - -
29/12:00pm 14.0 E 9 11 1019.6 - 0.0 - Mostly clear 10 - - - -
29/11:30am 14.2 E 7 8 1020.2 - 0.0 - - 10 - - - -
29/11:00am 13.7 SSE 4 6 1020.6 - 0.0 - - 10 - - - -
29/10:30am 13.1 NW 3 6 1021.0 - 0.0 - - 10 - - - -
29/10:00am 12.3 SW 8 11 1021.5 - 0.0 - - 10 - - - -
29/09:30am 11.2 SSW 6 11 1021.9 - 0.0 - Partly cloudy 10 - - - -
29/09:00am 10.5 SW 3 5 1022.0 - 1.2 - Partly cloudy 10 - - - -
29/08:30am 9.9 WSW 3 5 1021.9 - 1.2 - Partly cloudy 10 - - - -
29/08:00am 9.1 SW 3 6 1021.8 - 1.2 - Partly cloudy 10 - - - -
29/07:30am 8.4 W 1 4 1021.8 - 1.2 - Partly cloudy 10 - - - -
29/07:00am 8.4 WSW 1 3 1021.5 - 1.2 - Cloudy 10 - - - -
29/06:30am 8.2 SW 3 6 1021.4 - 1.2 - Cloudy 10 - - - -
29/06:00am 8.4 SW 4 7 1021.2 - 1.2 - Mostly cloudy 10 - - - -
29/05:37am 7.3 W 4 5 1021.0 - 1.2 - Partly cloudy 10 - - - -
29/05:30am 6.9 WNW 4 6 1021.1 - 1.2 - Partly cloudy 10 - - - -
29/05:10am 7.2 W 3 3 1021.1 - 1.2 - - 5 - - - -
29/05:00am 7.5 W 3 4 1021.1 - 1.2 - - 10 - - - -
29/04:30am 8.1 W 1 3 1021.2 - 1.2 - Partly cloudy 10 - - - -
29/04:00am 8.6 W 3 4 1021.2 - 1.2 - Partly cloudy 10 - - - -
29/03:30am 8.9 W 1 3 1021.3 - 1.2 - Cloudy 10 - - - -
29/03:00am 8.9 W 1 3 1021.6 - 1.2 - Cloudy 10 - - - -
29/02:30am 8.8 NW 3 4 1022.0 - 1.2 - Cloudy 10 - - - -
29/02:00am 8.9 NW 3 4 1022.2 - 1.2 - Partly cloudy 10 - - - -
29/01:30am 9.2 WNW 4 6 1022.3 - 1.2 - Partly cloudy 10 - - - -
29/01:00am 9.5 WNW 4 5 1022.5 - 1.2 - Partly cloudy 10 - - - -
29/12:30am 9.5 W 3 5 1022.6 - 1.2 - Partly cloudy 10 - - - -
29/12:00am 9.7 SW 5 6 1022.7 - 0.4 Recent precip. Cloudy 10 - - - -
 
Date/Time
EST
Temp

°C
Wind Pressure Rain
since 9am
mm
Weather Cloud Vis
km
Sea
Height
m
Swell
Dir
 
Speed
knots
Gust
knots
hPa Trend Height
m
Period
s
Dir
28/11:30pm 9.9 WNW 3 4 1022.8 - 0.2 - Cloudy 10 - - - -
28/11:00pm 9.8 WSW 4 4 1022.8 - 0.2 - Partly cloudy 10 - - - -
28/10:30pm 10.9 SSW 6 8 1022.9 - 0.2 - Cloudy 10 - - - -
28/10:00pm 11.1 SW 6 8 1023.0 - 0.2 - Cloudy 10 - - - -
28/09:30pm 11.1 SW 6 9 1022.9 - 0.2 - Partly cloudy 10 - - - -
28/09:00pm 11.5 SW 6 9 1022.7 - 0.2 - Cloudy 10 - - - -
28/08:30pm 11.8 SSW 8 12 1022.6 - 0.2 - Partly cloudy 10 - - - -
28/08:00pm 11.8 SSW 8 11 1022.1 - 0.2 - Partly cloudy 10 - - - -
28/07:30pm 12.1 SSW 5 9 1021.8 - 0.2 - Partly cloudy 10 - - - -
28/07:00pm 12.4 SSW 7 11 1021.6 - 0.2 - Partly cloudy 10 - - - -
28/06:30pm 12.5 S 9 13 1021.2 - 0.2 - Partly cloudy 10 - - - -
28/06:00pm 12.9 S 10 16 1020.9 - 0.2 - Mostly cloudy 10 - - - -
28/05:30pm 13.5 S 10 14 1020.4 - 0.2 - Partly cloudy 10 - - - -
28/05:00pm 13.4 S 6 8 1020.1 - 0.2 - Partly cloudy 10 - - - -

Other Formats:

Comma delimited format used in spreadsheet applications
http://www.bom.gov.au/fwo/IDN60701/IDN60701.95937.axf

JavaScript Object Notation format (JSON) in row-major order
http://www.bom.gov.au/fwo/IDN60701/IDN60701.95937.json